sensor_id;sensor_type;location;lat;lon;timestamp;pressure;altitude;pressure_sealevel;temperature;humidity
53889;BME280;41337;51.400;-2.342;2022-09-09T00:02:27;99604.75;;;14.80;100.00
53889;BME280;41337;51.400;-2.342;2022-09-09T00:07:49;99614.59;;;14.73;100.00
53889;BME280;41337;51.400;-2.342;2022-09-09T00:18:27;99626.63;;;14.79;100.00
53889;BME280;41337;51.400;-2.342;2022-09-09T00:23:37;99629.31;;;14.77;100.00
53889;BME280;41337;51.400;-2.342;2022-09-09T00:28:48;99642.31;;;14.80;100.00
53889;BME280;41337;51.400;-2.342;2022-09-09T00:33:55;99632.81;;;14.78;100.00
53889;BME280;41337;51.400;-2.342;2022-09-09T00:44:33;99623.91;;;14.82;100.00
53889;BME280;41337;51.400;-2.342;2022-09-09T00:50:02;99635.34;;;14.79;100.00
53889;BME280;41337;51.400;-2.342;2022-09-09T00:55:47;99633.44;;;14.84;100.00
53889;BME280;41337;51.400;-2.342;2022-09-09T01:01:04;99637.78;;;14.85;100.00
53889;BME280;41337;51.400;-2.342;2022-09-09T01:06:30;99642.22;;;14.83;100.00
53889;BME280;41337;51.400;-2.342;2022-09-09T01:17:24;99661.38;;;14.85;100.00
53889;BME280;41337;51.400;-2.342;2022-09-09T01:27:58;99680.00;;;14.78;100.00
53889;BME280;41337;51.400;-2.342;2022-09-09T01:33:01;99670.75;;;14.66;100.00
53889;BME280;41337;51.400;-2.342;2022-09-09T01:38:03;99683.22;;;14.58;100.00
53889;BME280;41337;51.400;-2.342;2022-09-09T01:43:08;99690.38;;;14.53;100.00
53889;BME280;41337;51.400;-2.342;2022-09-09T01:48:09;99700.13;;;14.49;100.00
53889;BME280;41337;51.400;-2.342;2022-09-09T01:53:11;99705.50;;;14.44;100.00
53889;BME280;41337;51.400;-2.342;2022-09-09T02:03:31;99701.38;;;14.37;100.00
53889;BME280;41337;51.400;-2.342;2022-09-09T02:08:43;99699.81;;;14.30;100.00
53889;BME280;41337;51.400;-2.342;2022-09-09T02:13:47;99703.44;;;14.26;100.00
53889;BME280;41337;51.400;-2.342;2022-09-09T02:24:18;99711.59;;;14.17;100.00
53889;BME280;41337;51.400;-2.342;2022-09-09T02:29:35;99710.78;;;14.14;100.00
53889;BME280;41337;51.400;-2.342;2022-09-09T02:34:47;99720.50;;;14.11;100.00
53889;BME280;41337;51.400;-2.342;2022-09-09T02:39:49;99712.75;;;14.06;100.00
53889;BME280;41337;51.400;-2.342;2022-09-09T02:44:50;99714.47;;;14.07;100.00
53889;BME280;41337;51.400;-2.342;2022-09-09T03:00:38;99719.69;;;14.07;100.00
53889;BME280;41337;51.400;-2.342;2022-09-09T03:05:40;99721.44;;;14.08;100.00
53889;BME280;41337;51.400;-2.342;2022-09-09T03:10:41;99728.31;;;14.12;100.00
53889;BME280;41337;51.400;-2.342;2022-09-09T03:15:42;99742.28;;;14.11;100.00
53889;BME280;41337;51.400;-2.342;2022-09-09T03:20:42;99753.66;;;14.10;100.00
53889;BME280;41337;51.400;-2.342;2022-09-09T03:25:50;99762.34;;;14.12;100.00
53889;BME280;41337;51.400;-2.342;2022-09-09T03:30:51;99771.78;;;14.18;100.00
53889;BME280;41337;51.400;-2.342;2022-09-09T03:35:52;99759.78;;;14.11;100.00
53889;BME280;41337;51.400;-2.342;2022-09-09T03:40:54;99752.91;;;14.07;100.00
53889;BME280;41337;51.400;-2.342;2022-09-09T03:45:56;99764.44;;;14.01;100.00
53889;BME280;41337;51.400;-2.342;2022-09-09T03:51:03;99773.03;;;14.05;100.00
53889;BME280;41337;51.400;-2.342;2022-09-09T03:56:04;99778.38;;;14.02;100.00
53889;BME280;41337;51.400;-2.342;2022-09-09T04:01:14;99773.19;;;14.00;100.00
53889;BME280;41337;51.400;-2.342;2022-09-09T04:06:15;99776.56;;;14.04;100.00
53889;BME280;41337;51.400;-2.342;2022-09-09T04:11:17;99783.53;;;14.05;100.00
53889;BME280;41337;51.400;-2.342;2022-09-09T04:16:18;99784.34;;;14.07;100.00
53889;BME280;41337;51.400;-2.342;2022-09-09T04:21:26;99798.06;;;14.15;100.00
53889;BME280;41337;51.400;-2.342;2022-09-09T04:26:27;99797.13;;;14.18;100.00
53889;BME280;41337;51.400;-2.342;2022-09-09T04:31:28;99797.94;;;14.20;100.00
53889;BME280;41337;51.400;-2.342;2022-09-09T04:36:29;99807.66;;;14.16;100.00
53889;BME280;41337;51.400;-2.342;2022-09-09T04:41:30;99817.28;;;14.16;100.00
53889;BME280;41337;51.400;-2.342;2022-09-09T04:46:31;99831.28;;;14.14;100.00
53889;BME280;41337;51.400;-2.342;2022-09-09T04:51:39;99833.94;;;14.13;100.00
53889;BME280;41337;51.400;-2.342;2022-09-09T04:56:40;99828.69;;;14.13;100.00
53889;BME280;41337;51.400;-2.342;2022-09-09T05:01:44;99833.88;;;14.14;100.00
53889;BME280;41337;51.400;-2.342;2022-09-09T05:06:44;99840.84;;;14.16;100.00
53889;BME280;41337;51.400;-2.342;2022-09-09T05:11:49;99845.84;;;14.23;100.00
53889;BME280;41337;51.400;-2.342;2022-09-09T05:16:53;99867.78;;;14.21;100.00
53889;BME280;41337;51.400;-2.342;2022-09-09T05:21:54;99882.66;;;14.19;100.00
53889;BME280;41337;51.400;-2.342;2022-09-09T05:26:55;99870.56;;;14.14;100.00
53889;BME280;41337;51.400;-2.342;2022-09-09T05:32:01;99873.34;;;14.08;100.00
53889;BME280;41337;51.400;-2.342;2022-09-09T05:37:03;99881.19;;;14.08;100.00
53889;BME280;41337;51.400;-2.342;2022-09-09T05:42:05;99876.16;;;14.01;100.00
53889;BME280;41337;51.400;-2.342;2022-09-09T05:47:06;99888.31;;;14.03;100.00
53889;BME280;41337;51.400;-2.342;2022-09-09T05:52:08;99888.44;;;13.99;100.00
53889;BME280;41337;51.400;-2.342;2022-09-09T05:57:10;99901.47;;;14.02;100.00
53889;BME280;41337;51.400;-2.342;2022-09-09T06:02:11;99916.97;;;14.09;100.00
53889;BME280;41337;51.400;-2.342;2022-09-09T06:07:19;99932.63;;;14.12;100.00
53889;BME280;41337;51.400;-2.342;2022-09-09T06:12:20;99934.34;;;14.12;100.00
53889;BME280;41337;51.400;-2.342;2022-09-09T06:17:21;99947.34;;;14.17;100.00
53889;BME280;41337;51.400;-2.342;2022-09-09T06:22:22;99950.81;;;14.17;100.00
53889;BME280;41337;51.400;-2.342;2022-09-09T06:27:23;99964.63;;;14.24;100.00
53889;BME280;41337;51.400;-2.342;2022-09-09T06:32:24;99967.13;;;14.27;100.00
53889;BME280;41337;51.400;-2.342;2022-09-09T06:37:25;99977.47;;;14.33;100.00
53889;BME280;41337;51.400;-2.342;2022-09-09T06:42:27;99978.47;;;14.29;100.00
53889;BME280;41337;51.400;-2.342;2022-09-09T06:47:32;99966.38;;;14.23;100.00
53889;BME280;41337;51.400;-2.342;2022-09-09T06:52:34;99965.41;;;14.27;100.00
53889;BME280;41337;51.400;-2.342;2022-09-09T06:57:34;99983.53;;;14.35;100.00
53889;BME280;41337;51.400;-2.342;2022-09-09T07:02:35;99969.56;;;14.35;100.00
53889;BME280;41337;51.400;-2.342;2022-09-09T07:07:39;99962.06;;;14.54;100.00
53889;BME280;41337;51.400;-2.342;2022-09-09T07:12:40;99973.81;;;14.73;100.00
53889;BME280;41337;51.400;-2.342;2022-09-09T07:17:40;99999.50;;;14.92;100.00
53889;BME280;41337;51.400;-2.342;2022-09-09T07:22:41;100003.75;;;14.96;100.00
53889;BME280;41337;51.400;-2.342;2022-09-09T07:27:42;99993.16;;;14.99;100.00
53889;BME280;41337;51.400;-2.342;2022-09-09T07:32:43;100011.13;;;15.13;100.00
53889;BME280;41337;51.400;-2.342;2022-09-09T07:37:44;100042.06;;;15.31;100.00
53889;BME280;41337;51.400;-2.342;2022-09-09T07:42:51;100047.13;;;15.37;100.00
53889;BME280;41337;51.400;-2.342;2022-09-09T07:47:52;100045.41;;;15.36;100.00
53889;BME280;41337;51.400;-2.342;2022-09-09T07:52:53;100049.53;;;15.45;100.00
53889;BME280;41337;51.400;-2.342;2022-09-09T07:57:55;100052.16;;;15.45;100.00
53889;BME280;41337;51.400;-2.342;2022-09-09T08:02:56;100064.19;;;15.52;100.00
53889;BME280;41337;51.400;-2.342;2022-09-09T08:07:57;100057.25;;;15.51;100.00
53889;BME280;41337;51.400;-2.342;2022-09-09T08:12:57;100068.38;;;15.59;100.00
53889;BME280;41337;51.400;-2.342;2022-09-09T08:17:58;100082.56;;;15.52;100.00
53889;BME280;41337;51.400;-2.342;2022-09-09T08:22:59;100082.16;;;15.66;100.00
53889;BME280;41337;51.400;-2.342;2022-09-09T08:28:00;100106.72;;;15.93;100.00
53889;BME280;41337;51.400;-2.342;2022-09-09T08:33:01;100120.63;;;16.25;100.00
53889;BME280;41337;51.400;-2.342;2022-09-09T08:38:02;100141.06;;;16.44;100.00
53889;BME280;41337;51.400;-2.342;2022-09-09T08:43:09;100150.09;;;16.62;100.00
53889;BME280;41337;51.400;-2.342;2022-09-09T08:48:36;100155.91;;;16.72;100.00
53889;BME280;41337;51.400;-2.342;2022-09-09T08:53:48;100184.50;;;16.82;100.00
53889;BME280;41337;51.400;-2.342;2022-09-09T08:58:52;100175.75;;;16.55;100.00
53889;BME280;41337;51.400;-2.342;2022-09-09T09:14:26;100190.66;;;16.26;100.00
53889;BME280;41337;51.400;-2.342;2022-09-09T09:19:28;100190.34;;;16.37;100.00
53889;BME280;41337;51.400;-2.342;2022-09-09T09:24:55;100205.69;;;16.51;100.00
53889;BME280;41337;51.400;-2.342;2022-09-09T09:29:57;100231.50;;;16.66;100.00
53889;BME280;41337;51.400;-2.342;2022-09-09T09:35:10;100232.91;;;16.77;100.00
53889;BME280;41337;51.400;-2.342;2022-09-09T09:40:20;100256.88;;;16.96;100.00
53889;BME280;41337;51.400;-2.342;2022-09-09T09:45:28;100260.22;;;16.73;100.00
53889;BME280;41337;51.400;-2.342;2022-09-09T09:50:34;100266.22;;;16.78;100.00
53889;BME280;41337;51.400;-2.342;2022-09-09T09:55:51;100264.34;;;16.53;100.00
53889;BME280;41337;51.400;-2.342;2022-09-09T10:01:00;100267.16;;;16.47;100.00
53889;BME280;41337;51.400;-2.342;2022-09-09T10:06:04;100285.94;;;16.34;100.00
53889;BME280;41337;51.400;-2.342;2022-09-09T10:32:41;100290.47;;;16.29;100.00
53889;BME280;41337;51.400;-2.342;2022-09-09T10:43:01;100304.97;;;16.43;100.00
53889;BME280;41337;51.400;-2.342;2022-09-09T10:58:48;100315.72;;;16.93;100.00
53889;BME280;41337;51.400;-2.342;2022-09-09T11:03:58;100312.84;;;17.01;100.00
53889;BME280;41337;51.400;-2.342;2022-09-09T11:09:02;100310.97;;;17.04;100.00
53889;BME280;41337;51.400;-2.342;2022-09-09T11:14:18;100307.19;;;17.13;100.00
53889;BME280;41337;51.400;-2.342;2022-09-09T11:19:29;100315.81;;;17.43;100.00
53889;BME280;41337;51.400;-2.342;2022-09-09T11:40:02;100349.53;;;18.80;100.00
53889;BME280;41337;51.400;-2.342;2022-09-09T11:45:27;100338.72;;;19.10;100.00
53889;BME280;41337;51.400;-2.342;2022-09-09T11:50:37;100348.94;;;19.60;100.00
53889;BME280;41337;51.400;-2.342;2022-09-09T11:55:38;100354.47;;;19.76;100.00
53889;BME280;41337;51.400;-2.342;2022-09-09T12:00:41;100364.31;;;19.71;100.00
53889;BME280;41337;51.400;-2.342;2022-09-09T12:05:45;100360.59;;;19.77;100.00
53889;BME280;41337;51.400;-2.342;2022-09-09T12:10:55;100363.94;;;19.60;100.00
53889;BME280;41337;51.400;-2.342;2022-09-09T12:16:01;100369.03;;;20.06;100.00
53889;BME280;41337;51.400;-2.342;2022-09-09T12:21:42;100349.59;;;20.07;100.00
53889;BME280;41337;51.400;-2.342;2022-09-09T12:27:01;100357.03;;;20.57;100.00
53889;BME280;41337;51.400;-2.342;2022-09-09T12:32:15;100365.59;;;20.62;100.00
53889;BME280;41337;51.400;-2.342;2022-09-09T12:37:44;100362.66;;;20.49;100.00
53889;BME280;41337;51.400;-2.342;2022-09-09T12:42:47;100368.22;;;20.24;100.00
53889;BME280;41337;51.400;-2.342;2022-09-09T12:47:51;100360.69;;;20.15;100.00
53889;BME280;41337;51.400;-2.342;2022-09-09T12:53:23;100363.53;;;20.10;100.00
53889;BME280;41337;51.400;-2.342;2022-09-09T12:58:32;100375.09;;;20.28;100.00
53889;BME280;41337;51.400;-2.342;2022-09-09T13:03:33;100383.91;;;20.29;100.00
53889;BME280;41337;51.400;-2.342;2022-09-09T13:08:43;100377.78;;;19.87;100.00
53889;BME280;41337;51.400;-2.342;2022-09-09T13:13:50;100380.50;;;19.86;100.00
53889;BME280;41337;51.400;-2.342;2022-09-09T13:18:52;100376.94;;;19.87;100.00
53889;BME280;41337;51.400;-2.342;2022-09-09T13:23:54;100369.44;;;19.76;100.00
53889;BME280;41337;51.400;-2.342;2022-09-09T13:28:55;100386.69;;;20.26;100.00
53889;BME280;41337;51.400;-2.342;2022-09-09T13:34:13;100386.75;;;20.24;100.00
53889;BME280;41337;51.400;-2.342;2022-09-09T13:39:21;100393.34;;;20.34;100.00
53889;BME280;41337;51.400;-2.342;2022-09-09T13:44:40;100401.38;;;20.52;100.00
53889;BME280;41337;51.400;-2.342;2022-09-09T13:49:42;100393.06;;;20.41;100.00
53889;BME280;41337;51.400;-2.342;2022-09-09T13:54:50;100389.31;;;20.45;100.00
53889;BME280;41337;51.400;-2.342;2022-09-09T13:59:53;100402.31;;;20.89;100.00
53889;BME280;41337;51.400;-2.342;2022-09-09T14:04:58;100389.16;;;20.87;100.00
53889;BME280;41337;51.400;-2.342;2022-09-09T14:09:59;100381.06;;;21.09;100.00
53889;BME280;41337;51.400;-2.342;2022-09-09T14:15:00;100407.34;;;21.51;100.00
53889;BME280;41337;51.400;-2.342;2022-09-09T14:20:03;100395.25;;;21.26;100.00
53889;BME280;41337;51.400;-2.342;2022-09-09T14:25:08;100404.69;;;20.95;100.00
53889;BME280;41337;51.400;-2.342;2022-09-09T14:30:10;100403.97;;;20.72;100.00
53889;BME280;41337;51.400;-2.342;2022-09-09T14:35:11;100406.94;;;20.46;100.00
53889;BME280;41337;51.400;-2.342;2022-09-09T14:40:13;100409.75;;;20.62;100.00
53889;BME280;41337;51.400;-2.342;2022-09-09T14:45:17;100400.63;;;20.29;100.00
53889;BME280;41337;51.400;-2.342;2022-09-09T14:50:19;100412.94;;;20.49;100.00
53889;BME280;41337;51.400;-2.342;2022-09-09T14:55:20;100406.41;;;20.77;100.00
53889;BME280;41337;51.400;-2.342;2022-09-09T15:00:21;100415.31;;;20.76;100.00
53889;BME280;41337;51.400;-2.342;2022-09-09T15:05:22;100402.78;;;20.80;100.00
53889;BME280;41337;51.400;-2.342;2022-09-09T15:10:28;100407.41;;;20.94;100.00
53889;BME280;41337;51.400;-2.342;2022-09-09T15:15:33;100410.38;;;21.24;100.00
53889;BME280;41337;51.400;-2.342;2022-09-09T15:20:35;100417.50;;;21.04;100.00
53889;BME280;41337;51.400;-2.342;2022-09-09T15:25:38;100432.91;;;20.96;100.00
53889;BME280;41337;51.400;-2.342;2022-09-09T15:30:38;100438.00;;;21.37;100.00
53889;BME280;41337;51.400;-2.342;2022-09-09T15:35:39;100447.56;;;21.59;100.00
53889;BME280;41337;51.400;-2.342;2022-09-09T15:40:40;100436.81;;;21.43;100.00
53889;BME280;41337;51.400;-2.342;2022-09-09T15:45:41;100435.41;;;21.36;100.00
53889;BME280;41337;51.400;-2.342;2022-09-09T15:50:42;100450.69;;;21.31;100.00
53889;BME280;41337;51.400;-2.342;2022-09-09T15:55:43;100445.84;;;20.63;100.00
53889;BME280;41337;51.400;-2.342;2022-09-09T16:00:44;100440.94;;;20.34;100.00
53889;BME280;41337;51.400;-2.342;2022-09-09T16:05:51;100433.56;;;20.02;100.00
53889;BME280;41337;51.400;-2.342;2022-09-09T16:10:51;100440.50;;;19.84;100.00
53889;BME280;41337;51.400;-2.342;2022-09-09T16:15:55;100440.38;;;19.65;100.00
53889;BME280;41337;51.400;-2.342;2022-09-09T16:20:57;100444.97;;;19.39;100.00
53889;BME280;41337;51.400;-2.342;2022-09-09T16:26:01;100437.50;;;19.26;100.00
53889;BME280;41337;51.400;-2.342;2022-09-09T16:31:14;100435.72;;;19.27;100.00
53889;BME280;41337;51.400;-2.342;2022-09-09T16:36:23;100439.41;;;19.23;100.00
53889;BME280;41337;51.400;-2.342;2022-09-09T16:41:31;100445.66;;;19.20;100.00
53889;BME280;41337;51.400;-2.342;2022-09-09T16:46:38;100446.72;;;19.16;100.00
53889;BME280;41337;51.400;-2.342;2022-09-09T16:51:43;100441.75;;;19.08;100.00
53889;BME280;41337;51.400;-2.342;2022-09-09T16:56:46;100456.13;;;19.01;100.00
53889;BME280;41337;51.400;-2.342;2022-09-09T17:01:50;100458.19;;;18.93;100.00
53889;BME280;41337;51.400;-2.342;2022-09-09T17:06:53;100451.91;;;18.96;100.00
53889;BME280;41337;51.400;-2.342;2022-09-09T17:11:57;100464.31;;;18.94;100.00
53889;BME280;41337;51.400;-2.342;2022-09-09T17:16:58;100468.69;;;18.95;100.00
53889;BME280;41337;51.400;-2.342;2022-09-09T17:22:01;100487.16;;;18.95;100.00
53889;BME280;41337;51.400;-2.342;2022-09-09T17:27:01;100474.44;;;18.81;100.00
53889;BME280;41337;51.400;-2.342;2022-09-09T17:32:03;100488.34;;;18.86;100.00
53889;BME280;41337;51.400;-2.342;2022-09-09T17:37:09;100493.06;;;18.76;100.00
53889;BME280;41337;51.400;-2.342;2022-09-09T17:42:10;100503.34;;;18.85;100.00
53889;BME280;41337;51.400;-2.342;2022-09-09T17:47:11;100498.97;;;18.84;100.00
53889;BME280;41337;51.400;-2.342;2022-09-09T17:52:12;100502.63;;;18.80;100.00
53889;BME280;41337;51.400;-2.342;2022-09-09T17:57:13;100510.06;;;18.69;100.00
53889;BME280;41337;51.400;-2.342;2022-09-09T18:02:13;100510.13;;;18.67;100.00
53889;BME280;41337;51.400;-2.342;2022-09-09T18:07:15;100515.41;;;18.67;100.00
53889;BME280;41337;51.400;-2.342;2022-09-09T18:12:20;100504.31;;;18.58;100.00
53889;BME280;41337;51.400;-2.342;2022-09-09T18:17:20;100503.50;;;18.30;100.00
53889;BME280;41337;51.400;-2.342;2022-09-09T18:22:21;100498.72;;;18.16;100.00
53889;BME280;41337;51.400;-2.342;2022-09-09T18:27:23;100502.25;;;18.15;100.00
53889;BME280;41337;51.400;-2.342;2022-09-09T18:32:23;100500.56;;;18.14;100.00
53889;BME280;41337;51.400;-2.342;2022-09-09T18:37:24;100503.44;;;18.07;100.00
53889;BME280;41337;51.400;-2.342;2022-09-09T18:42:25;100498.28;;;18.04;100.00
53889;BME280;41337;51.400;-2.342;2022-09-09T18:47:30;100505.72;;;17.91;100.00
53889;BME280;41337;51.400;-2.342;2022-09-09T18:52:31;100514.47;;;17.91;100.00
53889;BME280;41337;51.400;-2.342;2022-09-09T18:57:31;100520.88;;;17.83;100.00
53889;BME280;41337;51.400;-2.342;2022-09-09T19:02:32;100529.91;;;17.75;100.00
53889;BME280;41337;51.400;-2.342;2022-09-09T19:07:33;100530.09;;;17.69;100.00
53889;BME280;41337;51.400;-2.342;2022-09-09T19:12:34;100554.72;;;17.68;100.00
53889;BME280;41337;51.400;-2.342;2022-09-09T19:17:35;100573.16;;;17.68;100.00
53889;BME280;41337;51.400;-2.342;2022-09-09T19:22:36;100573.25;;;17.65;100.00
53889;BME280;41337;51.400;-2.342;2022-09-09T19:27:37;100592.63;;;17.64;100.00
53889;BME280;41337;51.400;-2.342;2022-09-09T19:32:38;100613.78;;;17.61;100.00
53889;BME280;41337;51.400;-2.342;2022-09-09T19:37:39;100625.56;;;17.49;100.00
53889;BME280;41337;51.400;-2.342;2022-09-09T19:42:45;100631.03;;;17.41;100.00
53889;BME280;41337;51.400;-2.342;2022-09-09T19:47:45;100630.28;;;17.38;100.00
53889;BME280;41337;51.400;-2.342;2022-09-09T19:52:46;100638.31;;;17.33;100.00
53889;BME280;41337;51.400;-2.342;2022-09-09T19:57:47;100640.13;;;17.31;100.00
53889;BME280;41337;51.400;-2.342;2022-09-09T20:02:48;100655.00;;;17.32;100.00
53889;BME280;41337;51.400;-2.342;2022-09-09T20:07:50;100654.34;;;17.24;100.00
53889;BME280;41337;51.400;-2.342;2022-09-09T20:12:51;100668.59;;;17.17;100.00
53889;BME280;41337;51.400;-2.342;2022-09-09T20:17:58;100671.34;;;17.12;100.00
53889;BME280;41337;51.400;-2.342;2022-09-09T20:22:59;100678.44;;;17.10;100.00
53889;BME280;41337;51.400;-2.342;2022-09-09T20:27:59;100672.56;;;17.00;100.00
53889;BME280;41337;51.400;-2.342;2022-09-09T20:33:00;100674.50;;;16.94;100.00
53889;BME280;41337;51.400;-2.342;2022-09-09T20:38:01;100679.03;;;16.87;100.00
53889;BME280;41337;51.400;-2.342;2022-09-09T20:43:03;100677.47;;;16.78;100.00
53889;BME280;41337;51.400;-2.342;2022-09-09T20:48:10;100683.09;;;16.64;100.00
53889;BME280;41337;51.400;-2.342;2022-09-09T20:53:11;100670.31;;;16.49;100.00
53889;BME280;41337;51.400;-2.342;2022-09-09T20:58:11;100680.06;;;16.44;100.00
53889;BME280;41337;51.400;-2.342;2022-09-09T21:03:12;100676.97;;;16.26;100.00
53889;BME280;41337;51.400;-2.342;2022-09-09T21:08:14;100680.72;;;16.16;100.00
53889;BME280;41337;51.400;-2.342;2022-09-09T21:13:15;100694.97;;;16.06;100.00
53889;BME280;41337;51.400;-2.342;2022-09-09T21:18:21;100692.56;;;15.95;100.00
53889;BME280;41337;51.400;-2.342;2022-09-09T21:23:22;100703.28;;;15.87;100.00
53889;BME280;41337;51.400;-2.342;2022-09-09T21:28:23;100695.59;;;15.78;100.00
53889;BME280;41337;51.400;-2.342;2022-09-09T21:33:33;100693.94;;;15.71;100.00
53889;BME280;41337;51.400;-2.342;2022-09-09T21:38:34;100709.81;;;15.66;100.00
53889;BME280;41337;51.400;-2.342;2022-09-09T21:43:36;100715.97;;;15.64;100.00
53889;BME280;41337;51.400;-2.342;2022-09-09T21:48:40;100726.47;;;15.64;100.00
53889;BME280;41337;51.400;-2.342;2022-09-09T21:53:42;100728.41;;;15.54;100.00
53889;BME280;41337;51.400;-2.342;2022-09-09T21:58:43;100722.41;;;15.49;100.00
53889;BME280;41337;51.400;-2.342;2022-09-09T22:03:44;100733.75;;;15.49;100.00
53889;BME280;41337;51.400;-2.342;2022-09-09T22:08:45;100739.06;;;15.46;100.00
53889;BME280;41337;51.400;-2.342;2022-09-09T22:13:47;100732.25;;;15.37;100.00
53889;BME280;41337;51.400;-2.342;2022-09-09T22:18:55;100731.53;;;15.28;100.00
53889;BME280;41337;51.400;-2.342;2022-09-09T22:24:04;100739.53;;;15.21;100.00
53889;BME280;41337;51.400;-2.342;2022-09-09T22:29:06;100732.66;;;15.14;100.00
53889;BME280;41337;51.400;-2.342;2022-09-09T22:34:06;100735.41;;;15.07;100.00
53889;BME280;41337;51.400;-2.342;2022-09-09T22:39:07;100731.13;;;15.02;100.00
53889;BME280;41337;51.400;-2.342;2022-09-09T22:44:08;100731.19;;;14.99;100.00
53889;BME280;41337;51.400;-2.342;2022-09-09T22:49:10;100749.56;;;14.98;100.00
53889;BME280;41337;51.400;-2.342;2022-09-09T22:54:14;100755.88;;;14.88;100.00
53889;BME280;41337;51.400;-2.342;2022-09-09T22:59:24;100748.19;;;14.75;100.00
53889;BME280;41337;51.400;-2.342;2022-09-09T23:04:26;100745.75;;;14.63;100.00
53889;BME280;41337;51.400;-2.342;2022-09-09T23:09:27;100746.72;;;14.54;100.00
53889;BME280;41337;51.400;-2.342;2022-09-09T23:14:28;100745.97;;;14.47;100.00
53889;BME280;41337;51.400;-2.342;2022-09-09T23:19:36;100754.75;;;14.43;100.00
53889;BME280;41337;51.400;-2.342;2022-09-09T23:24:37;100749.56;;;14.40;100.00
53889;BME280;41337;51.400;-2.342;2022-09-09T23:29:38;100748.72;;;14.37;100.00
53889;BME280;41337;51.400;-2.342;2022-09-09T23:34:39;100749.59;;;14.39;100.00
53889;BME280;41337;51.400;-2.342;2022-09-09T23:39:40;100742.66;;;14.33;100.00
53889;BME280;41337;51.400;-2.342;2022-09-09T23:44:41;100712.97;;;14.34;100.00
53889;BME280;41337;51.400;-2.342;2022-09-09T23:49:42;100720.81;;;14.34;100.00
53889;BME280;41337;51.400;-2.342;2022-09-09T23:54:44;100737.47;;;14.30;100.00
53889;BME280;41337;51.400;-2.342;2022-09-09T23:59:50;100734.97;;;14.24;100.00
